Time;durP1;ratioP1;P1;durP2;ratioP2;P2;SDS_P1;SDS_P2;PMS_P1;PMS_P2;Temp;Humidity;BMP_temperature;BMP_pressure;BME280_temperature;BME280_humidity;BME280_pressure;Samples;Min_cycle;Max_cycle;Signal;HPM_P1;HPM_P2
2023/03/14 00:00:59;;;;;;;1.73;1.10;;;;;;;9.18;100.00;96280.34;4157601;28;20160;-76
2023/03/14 00:02:59;;;;;;;1.20;1.00;;;;;;;9.13;100.00;96286.38;4156748;28;20148;-77
2023/03/14 00:05:02;;;;;;;1.88;1.10;;;;;;;9.15;100.00;96300.53;4157426;28;20054;-76
2023/03/14 00:07:03;;;;;;;1.30;1.00;;;;;;;9.10;100.00;96276.97;4157937;28;20771;-77
2023/03/14 00:09:03;;;;;;;1.48;0.93;;;;;;;9.12;100.00;96282.84;4157957;28;20041;-77
2023/03/14 00:11:06;;;;;;;0.85;0.85;;;;;;;9.13;100.00;96295.44;4157633;28;20575;-76
2023/03/14 00:13:06;;;;;;;1.85;0.90;;;;;;;9.16;100.00;96285.53;4155880;28;20529;-76
2023/03/14 00:15:07;;;;;;;1.73;0.90;;;;;;;9.13;100.00;96283.63;4157860;28;20064;-77
2023/03/14 00:17:08;;;;;;;2.55;1.02;;;;;;;9.26;100.00;96284.53;4156791;28;20042;-76
2023/03/14 00:19:08;;;;;;;1.92;0.80;;;;;;;9.22;100.00;96283.84;4157505;28;20049;-77
2023/03/14 00:21:10;;;;;;;1.30;0.85;;;;;;;9.22;100.00;96297.63;4157484;28;20042;-77
2023/03/14 00:23:11;;;;;;;1.85;1.25;;;;;;;9.15;100.00;96312.34;4157227;28;20072;-76
2023/03/14 00:25:12;;;;;;;1.60;0.90;;;;;;;9.09;100.00;96310.47;4157372;28;20049;-76
2023/03/14 00:27:12;;;;;;;2.15;0.80;;;;;;;9.04;100.00;96324.75;4156589;28;20041;-77
2023/03/14 00:29:13;;;;;;;1.55;1.02;;;;;;;9.05;100.00;96342.88;4157732;28;20482;-76
2023/03/14 00:31:15;;;;;;;1.10;0.90;;;;;;;9.12;100.00;96367.56;4156799;28;20045;-76
2023/03/14 00:33:15;;;;;;;1.45;0.90;;;;;;;9.27;100.00;96366.16;4159854;28;20045;-76
2023/03/14 00:35:16;;;;;;;1.00;0.90;;;;;;;9.19;100.00;96384.03;4160064;28;20048;-76
2023/03/14 00:37:16;;;;;;;0.90;0.85;;;;;;;9.18;100.00;96387.94;4161131;28;20041;-76
2023/03/14 00:39:16;;;;;;;0.90;0.80;;;;;;;9.09;100.00;96377.44;4160861;28;20046;-77
2023/03/14 00:41:19;;;;;;;1.58;0.80;;;;;;;9.11;100.00;96377.84;4160223;28;20083;-76
2023/03/14 00:43:23;;;;;;;;;;;;;;;9.19;100.00;96378.50;4160752;28;20085;-76
2023/03/14 00:45:23;;;;;;;1.67;1.10;;;;;;;9.20;100.00;96396.63;4160097;28;19996;-76
2023/03/14 00:47:23;;;;;;;1.42;1.17;;;;;;;9.19;100.00;96409.63;4160493;28;20140;-77
2023/03/14 00:49:24;;;;;;;1.08;0.90;;;;;;;9.21;100.00;96423.78;4160367;28;20041;-76
2023/03/14 00:51:24;;;;;;;1.13;0.90;;;;;;;9.20;100.00;96415.94;4160433;28;20125;-76
2023/03/14 00:53:24;;;;;;;1.52;0.90;;;;;;;9.23;100.00;96426.13;4159686;28;20335;-75
2023/03/14 00:55:25;;;;;;;2.13;0.90;;;;;;;9.23;100.00;96406.78;4160359;28;20575;-76
2023/03/14 00:57:25;;;;;;;1.15;0.80;;;;;;;9.26;100.00;96428.81;4160826;28;20526;-76
2023/03/14 00:59:26;;;;;;;1.13;0.93;;;;;;;9.21;100.00;96429.28;4159913;28;20045;-76
2023/03/14 01:01:27;;;;;;;0.80;0.77;;;;;;;9.16;100.00;96432.53;4160298;28;20848;-76
2023/03/14 01:03:27;;;;;;;1.42;0.90;;;;;;;9.22;100.00;96425.34;4159613;28;20124;-76
2023/03/14 01:05:28;;;;;;;1.67;1.00;;;;;;;9.25;100.00;96432.75;4160749;28;20084;-76
2023/03/14 01:07:28;;;;;;;1.30;0.80;;;;;;;9.22;100.00;96430.06;4159859;28;20525;-76
2023/03/14 01:09:28;;;;;;;1.17;0.95;;;;;;;9.22;100.00;96436.38;4160432;28;20616;-76
2023/03/14 01:11:32;;;;;;;1.40;1.00;;;;;;;9.16;100.00;96437.25;4160295;28;20077;-76
2023/03/14 01:13:32;;;;;;;1.60;1.00;;;;;;;9.16;100.00;96432.53;4158918;28;20136;-76
2023/03/14 01:15:33;;;;;;;1.00;0.90;;;;;;;9.22;100.00;96419.03;4160133;28;20096;-76
2023/03/14 01:17:34;;;;;;;3.13;0.90;;;;;;;9.20;100.00;96418.69;4159545;28;20487;-76
2023/03/14 01:19:35;;;;;;;1.67;1.00;;;;;;;9.26;100.00;96412.25;4160365;28;20042;-76
2023/03/14 01:21:35;;;;;;;3.00;1.15;;;;;;;9.29;100.00;96418.94;4160023;28;20116;-76
2023/03/14 01:23:36;;;;;;;0.80;0.80;;;;;;;9.28;100.00;96406.34;4159194;28;20681;-76
2023/03/14 01:25:40;;;;;;;2.03;1.00;;;;;;;9.27;100.00;96402.78;4159596;28;20761;-76
2023/03/14 01:27:41;;;;;;;1.30;1.13;;;;;;;9.24;100.00;96392.56;4159997;28;20489;-76
2023/03/14 01:29:42;;;;;;;2.38;1.00;;;;;;;9.24;100.00;96391.81;4159409;28;20096;-76
2023/03/14 01:31:42;;;;;;;2.28;1.13;;;;;;;9.19;100.00;96381.25;4159959;28;20034;-76
2023/03/14 01:33:42;;;;;;;1.80;0.90;;;;;;;9.26;100.00;96376.38;4159399;28;20092;-76
2023/03/14 01:35:43;;;;;;;2.65;1.13;;;;;;;9.25;100.00;96371.28;4159841;28;20429;-76
2023/03/14 01:37:43;;;;;;;1.92;0.88;;;;;;;9.18;100.00;96365.88;4159722;28;20385;-76
2023/03/14 01:39:43;;;;;;;1.83;0.90;;;;;;;9.13;100.00;96385.69;4159558;28;20462;-76
2023/03/14 01:41:44;;;;;;;1.42;0.90;;;;;;;9.08;100.00;96353.06;4159804;28;20088;-76
2023/03/14 01:43:44;;;;;;;1.38;1.10;;;;;;;9.01;100.00;96371.28;4157101;28;20069;-76
2023/03/14 01:46:06;;;;;;;1.27;1.05;;;;;;;8.94;100.00;96354.88;4158888;28;20069;-76
2023/03/14 01:48:06;;;;;;;1.50;1.20;;;;;;;8.99;100.00;96359.88;4159772;28;20207;-76
2023/03/14 01:50:11;;;;;;;1.90;0.98;;;;;;;8.98;100.00;96352.81;4159531;28;20113;-76
2023/03/14 01:52:47;;;;;;;2.30;1.02;;;;;;;9.00;100.00;96344.09;4159441;28;20037;-76
2023/03/14 01:54:52;;;;;;;1.90;1.05;;;;;;;9.01;100.00;96337.41;4139709;28;20052;-76
2023/03/14 01:57:13;;;;;;;2.65;0.95;;;;;;;8.98;100.00;96336.25;4149643;28;20442;-76
2023/03/14 01:59:14;;;;;;;1.10;0.90;;;;;;;9.02;100.00;96314.16;4158748;28;20056;-76
2023/03/14 02:01:17;;;;;;;1.27;1.05;;;;;;;9.04;100.00;96330.28;4159669;28;20057;-76
2023/03/14 02:03:21;;;;;;;2.00;1.20;;;;;;;9.03;100.00;96320.44;4158766;28;20049;-76
2023/03/14 02:05:25;;;;;;;1.90;1.15;;;;;;;9.02;100.00;96336.22;4159390;28;21157;-76
2023/03/14 02:07:35;;;;;;;2.78;1.27;;;;;;;9.06;100.00;96311.31;4159771;28;20424;-76
2023/03/14 02:09:38;;;;;;;3.80;1.23;;;;;;;9.12;100.00;96307.66;4159876;28;20088;-76
2023/03/14 02:11:38;;;;;;;2.80;1.40;;;;;;;9.14;100.00;96318.28;4159003;28;20088;-76
2023/03/14 02:13:38;;;;;;;4.10;1.23;;;;;;;9.07;100.00;96310.13;4158654;28;20499;-76
2023/03/14 02:15:40;;;;;;;2.83;1.27;;;;;;;9.11;100.00;96319.91;4158908;28;20048;-76
2023/03/14 02:17:45;;;;;;;2.88;1.13;;;;;;;9.08;100.00;96306.94;4159590;28;20116;-76
2023/03/14 02:19:48;;;;;;;2.88;1.13;;;;;;;9.09;100.00;96316.75;4159491;28;20072;-76
2023/03/14 02:22:02;;;;;;;3.53;1.20;;;;;;;9.03;100.00;96323.97;4159144;28;20104;-76
2023/03/14 02:24:16;;;;;;;1.63;1.10;;;;;;;9.05;100.00;96313.31;4158148;28;20099;-76
2023/03/14 02:26:25;;;;;;;2.13;1.25;;;;;;;9.05;100.00;96313.31;4158619;28;20076;-76
2023/03/14 02:28:25;;;;;;;1.70;0.98;;;;;;;9.08;100.00;96295.13;4159253;28;20524;-76
2023/03/14 02:30:30;;;;;;;2.45;1.30;;;;;;;9.08;100.00;96300.63;4158943;28;20077;-76
2023/03/14 02:32:33;;;;;;;1.50;1.10;;;;;;;9.08;100.00;96293.13;4158786;28;20069;-76
2023/03/14 02:34:36;;;;;;;2.50;1.30;;;;;;;9.13;100.00;96286.38;4159046;28;20045;-76
2023/03/14 02:36:36;;;;;;;5.78;1.30;;;;;;;9.15;100.00;96275.69;4158747;28;20132;-76
2023/03/14 02:38:41;;;;;;;2.40;1.13;;;;;;;9.15;100.00;96250.88;4159053;28;20037;-76
2023/03/14 02:40:42;;;;;;;2.13;1.02;;;;;;;9.10;100.00;96248.56;4158671;28;20030;-76
2023/03/14 02:42:42;;;;;;;6.70;1.45;;;;;;;9.08;100.00;96260.03;4158028;28;20065;-76
2023/03/14 02:44:59;;;;;;;2.50;1.20;;;;;;;9.09;100.00;96255.31;4158447;28;20080;-76
2023/03/14 02:47:00;;;;;;;3.85;1.23;;;;;;;9.02;100.00;96259.00;4158881;28;20585;-76
2023/03/14 02:49:10;;;;;;;1.83;1.42;;;;;;;8.97;100.00;96273.25;4158885;28;20041;-76
2023/03/14 02:51:11;;;;;;;1.95;1.10;;;;;;;8.92;100.00;96255.19;4158729;28;20046;-76
2023/03/14 02:53:15;;;;;;;5.40;1.20;;;;;;;8.86;100.00;96258.88;4157731;28;20363;-76
2023/03/14 02:55:21;;;;;;;2.47;1.30;;;;;;;8.89;100.00;96261.56;4157355;28;20057;-76
2023/03/14 02:57:22;;;;;;;1.98;1.10;;;;;;;8.82;100.00;96249.88;4158457;28;20074;-76
2023/03/14 02:59:22;;;;;;;3.75;1.20;;;;;;;8.77;100.00;96244.84;4158436;28;20482;-76
2023/03/14 03:01:23;;;;;;;3.60;1.30;;;;;;;8.78;100.00;96235.38;4158443;28;20191;-76
2023/03/14 03:03:23;;;;;;;2.25;1.50;;;;;;;8.83;100.00;96232.91;4157549;28;20052;-76
2023/03/14 03:05:23;;;;;;;2.05;1.20;;;;;;;8.80;100.00;96227.47;4158477;28;20046;-76
2023/03/14 03:07:24;;;;;;;5.00;1.50;;;;;;;8.77;100.00;96217.25;4158377;28;20292;-76
2023/03/14 03:09:24;;;;;;;3.47;1.40;;;;;;;8.79;100.00;96214.88;4158423;28;20045;-76
2023/03/14 03:11:25;;;;;;;2.50;1.42;;;;;;;8.78;100.00;96208.59;4157986;28;20729;-76
2023/03/14 03:13:25;;;;;;;3.42;1.60;;;;;;;8.86;100.00;96221.06;4157725;28;20863;-76
2023/03/14 03:15:26;;;;;;;2.13;1.20;;;;;;;8.89;100.00;96213.91;4158468;28;20054;-76
2023/03/14 03:17:26;;;;;;;2.92;1.45;;;;;;;8.81;100.00;96204.97;4157696;28;20053;-76
2023/03/14 03:19:27;;;;;;;3.72;1.70;;;;;;;8.86;100.00;96220.28;4158170;28;20060;-76
2023/03/14 03:21:27;;;;;;;1.85;1.10;;;;;;;8.76;100.00;96215.72;4158769;28;20168;-76
2023/03/14 03:23:27;;;;;;;4.63;1.48;;;;;;;8.88;100.00;96210.38;4157258;28;20088;-76
2023/03/14 03:25:28;;;;;;;2.80;1.10;;;;;;;8.85;100.00;96216.72;4157691;28;20457;-76
2023/03/14 03:27:32;;;;;;;5.22;1.42;;;;;;;8.89;100.00;96208.38;4158438;28;20037;-76
2023/03/14 03:29:33;;;;;;;3.75;1.58;;;;;;;8.81;100.00;96199.47;4158206;28;20045;-76
2023/03/14 03:31:33;;;;;;;5.90;1.73;;;;;;;8.88;100.00;96215.13;4158228;28;20037;-76
2023/03/14 03:33:33;;;;;;;2.80;1.23;;;;;;;8.92;100.00;96213.84;4157490;28;20485;-76
2023/03/14 03:35:34;;;;;;;2.50;1.45;;;;;;;8.89;100.00;96206.41;4158192;28;20049;-76
2023/03/14 03:37:34;;;;;;;3.03;1.25;;;;;;;8.87;100.00;96219.84;4157731;28;20052;-76
2023/03/14 03:39:35;;;;;;;2.78;1.33;;;;;;;8.84;100.00;96206.88;4157271;28;20038;-76
2023/03/14 03:41:35;;;;;;;3.17;1.40;;;;;;;8.83;100.00;96207.31;4158136;28;20536;-76
2023/03/14 03:43:35;;;;;;;2.63;1.60;;;;;;;8.87;100.00;96211.56;4157065;28;20090;-76
2023/03/14 03:45:36;;;;;;;4.68;1.50;;;;;;;8.84;100.00;96214.38;4157829;28;20382;-76
2023/03/14 03:47:36;;;;;;;4.65;1.42;;;;;;;8.85;100.00;96213.97;4158165;28;20033;-76
2023/03/14 03:49:36;;;;;;;2.70;1.40;;;;;;;8.85;100.00;96218.69;4157828;28;20504;-76
2023/03/14 03:51:37;;;;;;;3.22;1.30;;;;;;;8.83;100.00;96213.59;4157627;28;20514;-76
2023/03/14 03:53:37;;;;;;;4.07;1.40;;;;;;;8.84;100.00;96211.63;4156053;28;20045;-76
2023/03/14 03:55:40;;;;;;;2.88;1.60;;;;;;;8.86;100.00;96217.53;4157758;28;20063;-76
2023/03/14 03:57:40;;;;;;;4.28;1.90;;;;;;;8.86;100.00;96234.06;4157901;28;20429;-76
2023/03/14 03:59:40;;;;;;;6.25;1.50;;;;;;;8.84;100.00;96236.44;4157699;28;20045;-76
2023/03/14 04:01:41;;;;;;;6.28;1.73;;;;;;;8.87;100.00;96233.63;4157683;28;20038;-76
2023/03/14 04:03:41;;;;;;;4.72;1.63;;;;;;;8.84;100.00;96217.91;4157261;28;20045;-76
2023/03/14 04:05:42;;;;;;;3.40;1.48;;;;;;;8.85;100.00;96213.97;4157341;28;20081;-76
2023/03/14 04:07:42;;;;;;;1.42;1.13;;;;;;;8.89;100.00;96235.97;4156707;28;20050;-76
2023/03/14 04:09:42;;;;;;;4.28;1.42;;;;;;;8.95;100.00;96234.28;4157880;28;20072;-76
2023/03/14 04:11:43;;;;;;;3.42;1.30;;;;;;;9.01;100.00;96213.28;4157360;28;20087;-75
2023/03/14 04:13:43;;;;;;;3.13;1.00;;;;;;;8.98;100.00;96214.91;4157026;28;20745;-76
2023/03/14 04:15:43;;;;;;;3.17;1.35;;;;;;;8.92;100.00;96211.06;4157633;28;20103;-76
2023/03/14 04:17:44;;;;;;;2.83;1.40;;;;;;;8.88;100.00;96198.56;4157283;28;20470;-76
2023/03/14 04:19:44;;;;;;;4.45;1.00;;;;;;;8.86;100.00;96189.94;4157637;28;20040;-76
2023/03/14 04:21:46;;;;;;;2.55;1.10;;;;;;;8.81;100.00;96204.22;4157503;28;20073;-76
2023/03/14 04:23:46;;;;;;;2.13;1.10;;;;;;;8.75;100.00;96203.13;4156957;28;20521;-76
2023/03/14 04:25:47;;;;;;;4.90;1.30;;;;;;;8.76;100.00;96196.41;4157558;28;20053;-76
2023/03/14 04:27:47;;;;;;;7.63;2.05;;;;;;;8.72;100.00;96211.03;4157167;28;20618;-76
2023/03/14 04:29:48;;;;;;;3.53;1.33;;;;;;;8.77;100.00;96215.31;4157858;28;20359;-76
2023/03/14 04:31:48;;;;;;;2.50;1.10;;;;;;;8.78;100.00;96194.03;4157439;28;20048;-76
2023/03/14 04:33:48;;;;;;;1.73;1.10;;;;;;;8.79;100.00;96185.34;4156878;28;20060;-76
2023/03/14 04:35:50;;;;;;;2.17;1.50;;;;;;;8.76;100.00;96199.94;4157667;28;20709;-76
2023/03/14 04:37:51;;;;;;;3.33;1.20;;;;;;;8.73;100.00;96192.53;4156797;28;20041;-76
2023/03/14 04:39:52;;;;;;;1.50;1.00;;;;;;;8.70;100.00;96191.41;4157344;28;20052;-76
2023/03/14 04:41:52;;;;;;;3.13;1.30;;;;;;;8.71;100.00;96195.72;4157390;28;20034;-76
2023/03/14 04:43:52;;;;;;;4.47;1.10;;;;;;;8.70;100.00;96188.63;4156715;28;20056;-76
2023/03/14 04:45:57;;;;;;;1.48;0.90;;;;;;;8.67;100.00;96185.94;4156868;28;20072;-76
2023/03/14 04:47:57;;;;;;;4.38;1.35;;;;;;;8.67;100.00;96185.94;4157766;28;20065;-76
2023/03/14 04:49:58;;;;;;;3.60;1.00;;;;;;;8.78;100.00;96192.06;4156876;28;20421;-76
2023/03/14 04:51:58;;;;;;;8.70;1.95;;;;;;;8.73;100.00;96189.75;4156896;28;20045;-76
2023/03/14 04:53:58;;;;;;;2.60;1.20;;;;;;;8.76;100.00;96179.88;4156513;28;20213;-76
2023/03/14 04:55:59;;;;;;;2.88;1.15;;;;;;;8.73;100.00;96178.75;4157344;28;20552;-76
2023/03/14 04:57:59;;;;;;;6.63;1.00;;;;;;;8.72;100.00;96186.22;4157471;28;20058;-76
2023/03/14 04:59:59;;;;;;;3.35;1.40;;;;;;;8.77;100.00;96173.94;4157193;28;20068;-76
2023/03/14 05:02:00;;;;;;;4.10;1.15;;;;;;;8.73;100.00;96171.25;4157167;28;20045;-76
2023/03/14 05:04:00;;;;;;;2.42;1.00;;;;;;;8.71;100.00;96172.88;4156842;28;20053;-76
2023/03/14 05:06:00;;;;;;;1.52;1.10;;;;;;;8.69;100.00;96170.53;4156910;28;20085;-76
2023/03/14 05:08:01;;;;;;;1.73;1.02;;;;;;;8.67;100.00;96167.41;4156312;28;20046;-76
2023/03/14 05:10:02;;;;;;;1.95;0.90;;;;;;;8.70;100.00;96174.06;4157194;28;20033;-76
2023/03/14 05:12:02;;;;;;;3.78;1.00;;;;;;;8.71;100.00;96165.38;4157404;28;20469;-76
2023/03/14 05:14:03;;;;;;;1.50;1.20;;;;;;;8.71;100.00;96157.13;4156293;28;20065;-76
2023/03/14 05:16:05;;;;;;;3.95;1.40;;;;;;;8.80;100.00;96169.56;4157175;28;20139;-76
2023/03/14 05:18:05;;;;;;;;;;;;;;;8.80;100.00;96161.28;4158798;28;20029;-76
2023/03/14 05:20:08;;;;;;;7.38;1.15;;;;;;;8.77;100.00;96156.59;4160287;28;19917;-76
2023/03/14 05:22:10;;;;;;;1.02;0.90;;;;;;;8.77;100.00;96159.38;4160001;28;20076;-76
2023/03/14 05:24:10;;;;;;;3.47;0.98;;;;;;;8.80;100.00;96167.59;4159207;28;20500;-76
2023/03/14 05:26:10;;;;;;;3.17;1.52;;;;;;;8.72;100.00;96158.66;4191919;28;20032;-76
2023/03/14 05:28:11;;;;;;;1.23;1.13;;;;;;;8.75;100.00;96165.31;4159733;28;20025;-76
2023/03/14 05:30:11;;;;;;;1.67;0.95;;;;;;;8.71;100.00;96153.56;4160035;28;20501;-76
2023/03/14 05:32:12;;;;;;;2.97;1.48;;;;;;;8.66;100.00;96165.84;4160161;28;20079;-76
2023/03/14 05:34:12;;;;;;;3.47;1.30;;;;;;;8.67;100.00;96167.41;4158925;28;20064;-76
2023/03/14 05:36:12;;;;;;;2.65;1.17;;;;;;;8.65;100.00;96169.81;4159530;28;20067;-76
2023/03/14 05:38:13;;;;;;;2.65;1.75;;;;;;;8.66;100.00;96162.31;4159505;28;20447;-76
2023/03/14 05:40:13;;;;;;;5.45;1.00;;;;;;;8.62;100.00;96159.66;4159883;28;20060;-76
2023/03/14 05:42:13;;;;;;;3.92;1.20;;;;;;;8.60;100.00;96175.03;4159772;28;20029;-76
2023/03/14 05:44:14;;;;;;;7.10;1.73;;;;;;;8.67;100.00;96177.66;4158839;28;20035;-76
2023/03/14 05:46:14;;;;;;;2.78;1.00;;;;;;;8.67;100.00;96175.69;4160136;28;20148;-76
2023/03/14 05:48:14;;;;;;;5.95;1.15;;;;;;;8.71;100.00;96178.38;4159099;28;20036;-76
2023/03/14 05:50:15;;;;;;;5.10;1.20;;;;;;;8.65;100.00;96178.09;4159414;28;20037;-75
2023/03/14 05:52:15;;;;;;;2.90;1.40;;;;;;;8.63;100.00;96185.22;4159757;28;20516;-76
2023/03/14 05:54:16;;;;;;;1.73;1.10;;;;;;;8.64;100.00;96184.81;4158393;28;20029;-76
2023/03/14 05:56:16;;;;;;;2.60;1.10;;;;;;;8.64;100.00;96195.06;4105152;28;20041;-76
2023/03/14 05:58:16;;;;;;;1.15;0.88;;;;;;;8.71;100.00;96197.69;4184459;28;20071;-76
2023/03/14 06:00:17;;;;;;;3.08;1.10;;;;;;;8.67;100.00;96208.75;4159547;28;20056;-76
2023/03/14 06:02:17;;;;;;;3.67;1.20;;;;;;;8.71;100.00;96211.47;4159273;28;20073;-76
2023/03/14 06:04:18;;;;;;;3.33;1.13;;;;;;;8.75;100.00;96208.63;4157960;28;20116;-76
2023/03/14 06:06:18;;;;;;;4.55;1.17;;;;;;;8.76;100.00;96205.47;4159471;28;20025;-76
2023/03/14 06:08:18;;;;;;;2.95;1.00;;;;;;;8.77;100.00;96215.31;4159208;28;20040;-76
2023/03/14 06:10:19;;;;;;;2.80;1.10;;;;;;;8.77;100.00;96212.56;4159125;28;20057;-76
2023/03/14 06:12:19;;;;;;;2.72;1.10;;;;;;;8.77;100.00;96207.03;4159065;28;20462;-76
2023/03/14 06:14:19;;;;;;;1.85;0.95;;;;;;;8.80;100.00;96205.41;4158495;28;20409;-76
2023/03/14 06:16:20;;;;;;;1.23;0.93;;;;;;;8.80;100.00;96208.94;4158847;28;20043;-76
2023/03/14 06:18:20;;;;;;;2.92;1.10;;;;;;;8.78;100.00;96213.34;4159895;28;20541;-76
2023/03/14 06:20:20;;;;;;;4.20;1.02;;;;;;;8.76;100.00;96205.47;4159270;28;20068;-75
2023/03/14 06:22:21;;;;;;;4.45;1.10;;;;;;;8.73;100.00;96207.09;4158891;28;20111;-76
2023/03/14 06:24:21;;;;;;;2.20;0.93;;;;;;;8.79;100.00;96212.13;4158897;28;20140;-76
2023/03/14 06:26:22;;;;;;;2.38;1.10;;;;;;;8.78;100.00;96194.81;4158466;28;20034;-76
2023/03/14 06:28:23;;;;;;;1.95;1.10;;;;;;;8.73;100.00;96201.56;4158113;28;20482;-76
2023/03/14 06:30:23;;;;;;;5.23;1.27;;;;;;;8.78;100.00;96192.06;4157172;28;20060;-76
2023/03/14 06:32:24;;;;;;;4.07;1.10;;;;;;;8.76;100.00;96199.16;4158333;28;20041;-76
2023/03/14 06:34:25;;;;;;;2.53;1.10;;;;;;;8.78;100.00;96194.81;4156669;28;20489;-76
2023/03/14 06:36:25;;;;;;;3.58;1.10;;;;;;;8.78;100.00;96194.03;4156432;28;20251;-76
2023/03/14 06:38:26;;;;;;;1.83;0.90;;;;;;;8.73;100.00;96187.78;4158359;28;20175;-75
2023/03/14 06:40:26;;;;;;;1.35;0.90;;;;;;;8.79;100.00;96190.84;4158783;28;20096;-76
2023/03/14 06:42:26;;;;;;;1.45;0.90;;;;;;;8.81;100.00;96184.91;4158343;28;20071;-76
2023/03/14 06:44:27;;;;;;;1.20;1.00;;;;;;;8.80;100.00;96181.38;4158971;28;20474;-76
2023/03/14 06:46:27;;;;;;;1.98;1.42;;;;;;;8.84;100.00;96178.53;4158458;28;20041;-76
2023/03/14 06:48:27;;;;;;;3.53;1.00;;;;;;;8.88;100.00;96182.78;4158137;28;20131;-76
2023/03/14 06:50:28;;;;;;;5.60;1.25;;;;;;;8.87;100.00;96174.94;4158894;28;20768;-75
2023/03/14 06:52:28;;;;;;;2.10;0.98;;;;;;;8.90;100.00;96182.38;4158203;28;20037;-75
2023/03/14 06:54:28;;;;;;;2.33;0.98;;;;;;;8.88;100.00;96174.53;4158476;28;20072;-75
2023/03/14 06:56:29;;;;;;;1.42;0.90;;;;;;;8.97;100.00;96174.75;4158910;28;20067;-75
2023/03/14 06:58:29;;;;;;;4.45;1.10;;;;;;;8.97;100.00;96176.72;4158558;28;20044;-75
2023/03/14 07:00:29;;;;;;;1.95;0.98;;;;;;;8.98;100.00;96172.75;4158345;28;20048;-75
2023/03/14 07:02:30;;;;;;;1.65;0.90;;;;;;;8.98;100.00;96178.28;4157729;28;20048;-75
2023/03/14 07:04:30;;;;;;;2.05;0.80;;;;;;;9.04;100.00;96193.13;4158675;28;20485;-75
2023/03/14 07:06:31;;;;;;;1.90;0.90;;;;;;;9.04;100.00;96192.38;4158696;28;20076;-75
2023/03/14 07:08:31;;;;;;;1.10;0.90;;;;;;;9.04;100.00;96198.66;4158354;28;20042;-75
2023/03/14 07:10:31;;;;;;;2.22;0.80;;;;;;;9.01;100.00;96196.72;4158637;28;20458;-75
2023/03/14 07:12:32;;;;;;;2.50;1.00;;;;;;;8.99;100.00;96210.16;4158110;28;20048;-75
2023/03/14 07:14:32;;;;;;;3.00;1.00;;;;;;;8.98;100.00;96201.13;4158425;28;20073;-75
2023/03/14 07:16:32;;;;;;;2.15;1.05;;;;;;;8.98;100.00;96206.63;4158609;28;20072;-75
2023/03/14 07:18:33;;;;;;;4.40;1.05;;;;;;;8.98;100.00;96206.63;4157623;28;20112;-75
2023/03/14 07:20:33;;;;;;;3.85;1.00;;;;;;;9.06;100.00;96206.50;4157919;28;20151;-75
2023/03/14 07:22:33;;;;;;;3.95;1.30;;;;;;;9.06;100.00;96218.31;4158110;28;20064;-75
2023/03/14 07:24:34;;;;;;;2.35;1.08;;;;;;;9.13;100.00;96192.56;4158239;28;20396;-75
2023/03/14 07:26:34;;;;;;;2.42;0.90;;;;;;;9.20;100.00;96197.97;4158163;28;20041;-75
2023/03/14 07:28:35;;;;;;;1.90;0.80;;;;;;;9.24;100.00;96193.13;4158166;28;20029;-75
2023/03/14 07:30:35;;;;;;;0.90;0.70;;;;;;;9.20;100.00;96195.97;4158215;28;20536;-75
2023/03/14 07:32:35;;;;;;;2.42;0.80;;;;;;;9.21;100.00;96189.25;4156976;28;20404;-75
2023/03/14 07:34:36;;;;;;;3.17;0.77;;;;;;;9.17;100.00;96188.53;4158168;28;20069;-76
2023/03/14 07:36:36;;;;;;;1.42;0.80;;;;;;;9.13;100.00;96182.31;4158438;28;20075;-75
2023/03/14 07:38:37;;;;;;;1.20;0.90;;;;;;;9.13;100.00;96171.28;4158287;28;20048;-75
2023/03/14 07:40:37;;;;;;;3.70;0.85;;;;;;;9.09;100.00;96175.31;4158078;28;20029;-75
2023/03/14 07:42:37;;;;;;;2.13;0.80;;;;;;;9.14;100.00;96167.31;4157284;28;20206;-75
2023/03/14 07:44:38;;;;;;;1.60;0.60;;;;;;;9.12;100.00;96169.72;4158121;28;20034;-75
2023/03/14 07:46:38;;;;;;;1.63;0.80;;;;;;;9.14;100.00;96172.06;4157340;28;20048;-75
2023/03/14 07:48:38;;;;;;;3.35;0.75;;;;;;;9.18;100.00;96170.78;4158323;28;20037;-75
2023/03/14 07:50:39;;;;;;;1.95;0.70;;;;;;;9.15;100.00;96157.06;4158325;28;20115;-75
2023/03/14 07:52:39;;;;;;;1.10;0.73;;;;;;;9.20;100.00;96154.59;4156984;28;20092;-75
2023/03/14 07:54:40;;;;;;;3.83;0.93;;;;;;;9.18;100.00;96139.66;4158077;28;20184;-75
2023/03/14 07:56:40;;;;;;;3.25;0.98;;;;;;;9.19;100.00;96124.69;4158010;28;20092;-75
2023/03/14 07:58:40;;;;;;;1.42;0.63;;;;;;;9.26;100.00;96128.03;4157750;28;20117;-75
2023/03/14 08:00:41;;;;;;;3.83;1.00;;;;;;;9.27;100.00;96131.59;4157950;28;20126;-75
2023/03/14 08:02:41;;;;;;;1.20;0.60;;;;;;;9.31;100.00;96124.00;4157061;28;20377;-75
2023/03/14 08:04:42;;;;;;;3.72;0.80;;;;;;;9.37;100.00;96119.56;4157902;28;20033;-75
2023/03/14 08:06:42;;;;;;;1.23;0.68;;;;;;;9.36;100.00;96120.75;4157980;28;20109;-75
2023/03/14 08:08:43;;;;;;;1.70;0.75;;;;;;;9.44;100.00;96116.66;4158205;28;20763;-75
2023/03/14 08:10:43;;;;;;;2.60;0.80;;;;;;;9.54;100.00;96125.91;4157708;28;20473;-75
2023/03/14 08:12:44;;;;;;;0.80;0.60;;;;;;;9.61;100.00;96119.44;4156906;28;20478;-77
2023/03/14 08:14:44;;;;;;;0.82;0.60;;;;;;;9.66;100.00;96113.41;4157499;28;20073;-75
2023/03/14 08:16:44;;;;;;;1.20;0.63;;;;;;;9.73;100.00;96127.03;4157634;28;20041;-75
2023/03/14 08:18:45;;;;;;;2.00;0.80;;;;;;;9.73;100.00;96108.50;4156322;28;20136;-75
2023/03/14 08:20:45;;;;;;;1.05;0.70;;;;;;;9.89;99.29;96116.00;4157500;28;20385;-75
2023/03/14 08:22:46;;;;;;;1.73;0.75;;;;;;;9.94;99.20;96120.25;4157440;28;20041;-75
2023/03/14 08:24:46;;;;;;;1.90;0.60;;;;;;;9.96;99.09;96124.13;4157125;28;20443;-75
2023/03/14 08:26:47;;;;;;;1.48;0.80;;;;;;;9.99;98.90;96128.78;4157486;28;20045;-75
2023/03/14 08:28:47;;;;;;;1.75;0.70;;;;;;;9.94;98.21;96134.06;4158020;28;20052;-76
2023/03/14 08:30:48;;;;;;;3.05;0.70;;;;;;;9.98;99.32;96124.47;4156936;28;20135;-75
2023/03/14 08:32:48;;;;;;;2.30;0.73;;;;;;;10.03;98.84;96132.25;4156923;28;20049;-76
2023/03/14 08:34:49;;;;;;;0.47;0.45;;;;;;;10.04;98.76;96136.56;4157550;28;20046;-75
2023/03/14 08:36:50;;;;;;;1.45;0.80;;;;;;;10.04;97.21;96133.81;4157745;28;20045;-75
2023/03/14 08:38:50;;;;;;;2.45;0.70;;;;;;;9.96;98.58;96135.19;4157751;28;20954;-75
2023/03/14 08:40:56;;;;;;;0.63;0.60;;;;;;;10.06;98.52;96141.66;4157237;28;20091;-75
2023/03/14 08:42:56;;;;;;;1.42;0.60;;;;;;;10.13;97.05;96124.91;4156838;28;20242;-75
2023/03/14 08:44:57;;;;;;;1.52;0.88;;;;;;;10.20;97.93;96132.25;4157520;28;20385;-75
2023/03/14 08:46:57;;;;;;;0.85;0.60;;;;;;;10.18;98.22;96127.19;4157152;28;20041;-76
2023/03/14 08:48:57;;;;;;;0.93;0.70;;;;;;;10.24;97.20;96127.44;4157396;28;20049;-75
2023/03/14 08:51:06;;;;;;;0.85;0.70;;;;;;;10.27;96.38;96132.91;4157640;28;20140;-76
2023/03/14 08:53:06;;;;;;;0.70;0.70;;;;;;;10.25;97.05;96134.53;4157960;28;20057;-76
2023/03/14 08:55:09;;;;;;;0.60;0.52;;;;;;;10.24;96.81;96135.72;4161135;28;20471;-76
2023/03/14 08:57:09;;;;;;;2.05;0.80;;;;;;;10.19;97.89;96131.50;4160204;28;20349;-75
2023/03/14 08:59:10;;;;;;;1.15;0.70;;;;;;;10.17;96.81;96133.88;4160199;28;20565;-75
2023/03/14 09:01:11;;;;;;;3.95;0.60;;;;;;;10.19;96.63;96137.00;4160954;28;20061;-75
2023/03/14 09:03:11;;;;;;;1.38;0.55;;;;;;;10.22;97.16;96149.97;4159442;28;20045;-75
2023/03/14 09:05:12;;;;;;;1.00;0.55;;;;;;;10.19;97.07;96148.06;4160299;28;20355;-76
2023/03/14 09:07:12;;;;;;;0.50;0.50;;;;;;;10.21;97.31;96142.09;4160190;28;20053;-76
2023/03/14 09:09:13;;;;;;;1.83;0.60;;;;;;;10.18;97.79;96162.28;4160410;28;20033;-75
2023/03/14 09:11:14;;;;;;;2.40;0.82;;;;;;;10.18;97.05;96163.09;4160518;28;20075;-75
2023/03/14 09:13:14;;;;;;;0.60;0.60;;;;;;;10.28;97.09;96150.25;4158951;28;20041;-76
2023/03/14 09:15:14;;;;;;;2.10;1.25;;;;;;;10.31;97.80;96150.16;4160463;28;20037;-75
2023/03/14 09:17:15;;;;;;;1.50;1.10;;;;;;;10.49;96.86;96151.69;4160094;28;20111;-75
2023/03/14 09:19:15;;;;;;;1.00;0.70;;;;;;;10.49;96.08;96155.22;4159980;28;20033;-76
2023/03/14 09:21:15;;;;;;;0.80;0.70;;;;;;;10.46;97.52;96161.63;4160590;28;20095;-76
2023/03/14 09:23:16;;;;;;;0.45;0.45;;;;;;;10.59;95.50;96179.09;4159219;28;20045;-75
2023/03/14 09:25:16;;;;;;;0.65;0.50;;;;;;;10.67;95.03;96176.91;4159974;28;20063;-75
2023/03/14 09:27:16;;;;;;;1.05;0.95;;;;;;;10.67;95.72;96163.06;4158875;28;20241;-76
2023/03/14 09:29:17;;;;;;;1.50;0.57;;;;;;;10.63;95.01;96179.75;4159472;28;20029;-76
2023/03/14 09:31:17;;;;;;;2.38;0.52;;;;;;;10.63;96.01;96177.00;4159851;28;20049;-76